Terminal Aerodrome Forecast
Issued by NWS Newport/Morehead City, NC

Home | Current Version | Previous Version | Text Only | Print | Product List | Glossary On
Versions: 1 2 3 4 5 6 7 8 9 10 11 12 13
086
FTUS42 KMHX 121127
TAFEWN
TAF
KEWN 121127Z 1212/1312 03006KT P6SM BKN070
     FM121600 05010KT 4SM -SNPL OVC020
     FM121800 07005KT 2SM -FZRAPL BR OVC007
     FM122100 02005KT 3SM BR OVC005
     FM130500 30005KT P6SM SCT010=

USA.gov is the U.S. government's official web portal to all federal, state and local government web resources and services.